Time;durP1;ratioP1;P1;durP2;ratioP2;P2;SDS_P1;SDS_P2;PMS_P1;PMS_P2;Temp;Humidity;BMP_temperature;BMP_pressure;BME280_temperature;BME280_humidity;BME280_pressure;Samples;Min_cycle;Max_cycle;Signal;HPM_P1;HPM_P2
2023/09/26 00:01:01;;;;;;;5.00;1.40;;;;;;;;;;5064632;28;20031;-62
2023/09/26 00:03:26;;;;;;;4.55;1.35;;;;;;;;;;5044840;28;21324;-64
2023/09/26 00:05:56;;;;;;;4.00;1.23;;;;;;;;;;5070423;28;20233;-63
2023/09/26 00:08:22;;;;;;;3.83;1.40;;;;;;;;;;5075263;28;20258;-63
2023/09/26 00:10:47;;;;;;;4.17;1.30;;;;;;;;;;5072565;28;20017;-64
2023/09/26 00:13:13;;;;;;;5.28;1.50;;;;;;;;;;5078907;28;20289;-63
2023/09/26 00:15:41;;;;;;;4.30;1.38;;;;;;;;;;5075088;28;20122;-65
2023/09/26 00:18:06;;;;;;;4.63;1.38;;;;;;;;;;5060179;28;20520;-64
2023/09/26 00:20:34;;;;;;;4.18;1.40;;;;;;;;;;5085589;28;20023;-64
2023/09/26 00:23:00;;;;;;;4.68;1.45;;;;;;;;;;5073687;28;20027;-63
2023/09/26 00:25:27;;;;;;;3.70;1.17;;;;;;;;;;5059311;28;20021;-64
2023/09/26 00:27:53;;;;;;;4.60;1.38;;;;;;;;;;5075137;28;20028;-63
2023/09/26 00:30:26;;;;;;;5.60;1.70;;;;;;;;;;5060586;28;20066;-64
2023/09/26 00:32:53;;;;;;;3.53;1.10;;;;;;;;;;5078820;28;20023;-64
2023/09/26 00:35:19;;;;;;;4.50;1.40;;;;;;;;;;5070254;28;20031;-64
2023/09/26 00:37:47;;;;;;;4.32;1.33;;;;;;;;;;5076850;28;20020;-64
2023/09/26 00:40:18;;;;;;;4.65;1.40;;;;;;;;;;5059978;28;20031;-64
2023/09/26 00:42:44;;;;;;;3.65;1.10;;;;;;;;;;5080829;28;20024;-64
2023/09/26 00:45:12;;;;;;;5.18;1.65;;;;;;;;;;5057198;28;20016;-65
2023/09/26 00:47:38;;;;;;;4.45;1.15;;;;;;;;;;5056547;28;20130;-64
2023/09/26 00:50:04;;;;;;;4.97;1.40;;;;;;;;;;5076527;28;20581;-64
2023/09/26 00:52:29;;;;;;;4.90;1.50;;;;;;;;;;5078576;28;20853;-64
2023/09/26 00:54:55;;;;;;;6.50;1.50;;;;;;;;;;5074736;28;20668;-64
2023/09/26 00:57:20;;;;;;;5.35;1.75;;;;;;;;;;5076343;28;20586;-63
2023/09/26 00:59:46;;;;;;;4.68;1.30;;;;;;;;;;5058286;28;20032;-64
2023/09/26 01:02:13;;;;;;;4.07;1.27;;;;;;;;;;5074905;28;20028;-64
2023/09/26 01:04:39;;;;;;;4.25;1.30;;;;;;;;;;5078323;28;20042;-63
2023/09/26 01:07:07;;;;;;;3.90;1.23;;;;;;;;;;5076750;28;20028;-64
2023/09/26 01:09:32;;;;;;;6.28;1.40;;;;;;;;;;5063379;28;20020;-63
2023/09/26 01:11:57;;;;;;;5.07;1.40;;;;;;;;;;5076289;28;20500;-64
2023/09/26 01:14:23;;;;;;;4.35;1.50;;;;;;;;;;5072902;28;21351;-63
2023/09/26 01:16:57;;;;;;;4.70;1.30;;;;;;;;;;5058673;28;20506;-64
2023/09/26 01:19:22;;;;;;;5.53;1.50;;;;;;;;;;5074645;28;20429;-64
2023/09/26 01:21:47;;;;;;;4.20;1.37;;;;;;;;;;5057565;28;20032;-65
2023/09/26 01:24:13;;;;;;;6.03;1.38;;;;;;;;;;5049699;28;20621;-62
2023/09/26 01:26:41;;;;;;;3.80;1.23;;;;;;;;;;5065646;28;20570;-64
2023/09/26 01:29:07;;;;;;;4.47;1.60;;;;;;;;;;5057855;28;20130;-64
2023/09/26 01:31:35;;;;;;;3.85;1.35;;;;;;;;;;5072483;28;20012;-62
2023/09/26 01:34:00;;;;;;;5.10;1.40;;;;;;;;;;5070212;28;20032;-64
2023/09/26 01:36:27;;;;;;;3.92;1.48;;;;;;;;;;5059325;28;20039;-64
2023/09/26 01:38:53;;;;;;;3.90;1.20;;;;;;;;;;5054675;28;20810;-63
2023/09/26 01:41:18;;;;;;;3.80;1.10;;;;;;;;;;5050171;28;20062;-62
2023/09/26 01:43:43;;;;;;;5.57;1.35;;;;;;;;;;5074274;28;20020;-64
2023/09/26 01:46:11;;;;;;;4.80;1.20;;;;;;;;;;5067816;28;20638;-63
2023/09/26 01:48:36;;;;;;;4.40;1.50;;;;;;;;;;5076990;27;20055;-60
2023/09/26 01:51:04;;;;;;;5.93;1.60;;;;;;;;;;5095567;27;20023;-64
2023/09/26 01:53:29;;;;;;;5.65;1.50;;;;;;;;;;5098163;27;20267;-62
2023/09/26 01:55:58;;;;;;;4.73;1.43;;;;;;;;;;5075386;28;20032;-61
2023/09/26 01:58:25;;;;;;;5.88;1.63;;;;;;;;;;5089467;27;20368;-64
2023/09/26 02:00:50;;;;;;;4.20;1.38;;;;;;;;;;5077747;27;20038;-64
2023/09/26 02:03:16;;;;;;;7.47;1.53;;;;;;;;;;5096863;27;20098;-63
2023/09/26 02:05:41;;;;;;;4.00;1.30;;;;;;;;;;5096226;27;20293;-64
2023/09/26 02:08:06;;;;;;;4.20;1.30;;;;;;;;;;5097613;27;20282;-64
2023/09/26 02:10:32;;;;;;;4.57;1.42;;;;;;;;;;5102470;27;20050;-64
2023/09/26 02:12:57;;;;;;;3.95;1.23;;;;;;;;;;5075912;28;20024;-64
2023/09/26 02:15:23;;;;;;;4.20;1.43;;;;;;;;;;5093332;28;20636;-64
2023/09/26 02:17:48;;;;;;;4.45;1.35;;;;;;;;;;5088808;27;20298;-64
2023/09/26 02:20:17;;;;;;;5.88;1.23;;;;;;;;;;5076494;28;20119;-63
2023/09/26 02:22:43;;;;;;;;;;;;;;;;;;5089699;27;20953;-63
2023/09/26 02:25:12;;;;;;;5.97;1.37;;;;;;;;;;5088945;28;20006;-63
2023/09/26 02:27:40;;;;;;;3.97;1.35;;;;;;;;;;5089541;27;20246;-64
2023/09/26 02:30:06;;;;;;;4.30;1.48;;;;;;;;;;5089125;27;20564;-64
2023/09/26 02:32:34;;;;;;;4.05;1.33;;;;;;;;;;5074759;28;20016;-64
2023/09/26 02:34:59;;;;;;;4.38;1.30;;;;;;;;;;5073462;28;20039;-64
2023/09/26 02:37:25;;;;;;;5.75;1.65;;;;;;;;;;5096256;27;20019;-61
2023/09/26 02:39:50;;;;;;;4.20;1.40;;;;;;;;;;5094989;27;20106;-64
2023/09/26 02:42:18;;;;;;;4.97;1.60;;;;;;;;;;5077963;27;20285;-64
2023/09/26 02:44:43;;;;;;;4.68;1.40;;;;;;;;;;5073039;28;20265;-64
2023/09/26 02:47:08;;;;;;;4.25;1.40;;;;;;;;;;5088172;27;20097;-63
2023/09/26 02:49:33;;;;;;;6.03;1.67;;;;;;;;;;5066998;28;20412;-63
2023/09/26 02:51:59;;;;;;;5.63;1.33;;;;;;;;;;5075033;28;20246;-64
2023/09/26 02:54:25;;;;;;;5.10;1.03;;;;;;;;;;5073790;28;20116;-63
2023/09/26 02:56:51;;;;;;;4.32;1.40;;;;;;;;;;5062618;28;20261;-64
2023/09/26 02:59:18;;;;;;;3.78;1.25;;;;;;;;;;5059968;28;20016;-63
2023/09/26 03:01:44;;;;;;;4.60;1.50;;;;;;;;;;5084687;28;21376;-64
2023/09/26 03:04:11;;;;;;;6.13;1.40;;;;;;;;;;5071574;28;20024;-64
2023/09/26 03:06:36;;;;;;;5.68;1.40;;;;;;;;;;5066965;28;20254;-63
2023/09/26 03:09:02;;;;;;;4.03;1.40;;;;;;;;;;5078322;28;20528;-64
2023/09/26 03:11:29;;;;;;;6.45;1.38;;;;;;;;;;5079698;28;20860;-64
2023/09/26 03:13:57;;;;;;;4.40;1.33;;;;;;;;;;5059165;28;20027;-65
2023/09/26 03:16:22;;;;;;;7.25;1.63;;;;;;;;;;5062432;28;20021;-64
2023/09/26 03:18:53;;;;;;;5.65;1.40;;;;;;;;;;5073428;28;20308;-63
2023/09/26 03:21:18;;;;;;;3.88;1.48;;;;;;;;;;5065047;28;20023;-64
2023/09/26 03:23:43;;;;;;;3.87;1.30;;;;;;;;;;5075553;28;20008;-64
2023/09/26 03:26:09;;;;;;;4.63;1.50;;;;;;;;;;5071937;28;20250;-64
2023/09/26 03:28:34;;;;;;;5.00;1.58;;;;;;;;;;5076989;28;20242;-64
2023/09/26 03:31:03;;;;;;;4.97;1.60;;;;;;;;;;5084132;28;20015;-64
2023/09/26 03:33:28;;;;;;;5.20;1.50;;;;;;;;;;5050845;28;20278;-64
2023/09/26 03:35:56;;;;;;;4.20;1.33;;;;;;;;;;5065214;28;20027;-64
2023/09/26 03:38:21;;;;;;;4.53;1.40;;;;;;;;;;5075426;28;20253;-63
2023/09/26 03:40:46;;;;;;;5.03;1.50;;;;;;;;;;5074718;28;20040;-64
2023/09/26 03:43:14;;;;;;;4.03;1.30;;;;;;;;;;5059042;28;20286;-64
2023/09/26 03:45:42;;;;;;;4.45;1.50;;;;;;;;;;5073611;28;20313;-63
2023/09/26 03:48:08;;;;;;;5.32;1.63;;;;;;;;;;5056127;28;20051;-63
2023/09/26 03:50:33;;;;;;;4.03;1.33;;;;;;;;;;5050653;28;20378;-62
2023/09/26 03:53:00;;;;;;;6.03;1.40;;;;;;;;;;5077377;28;20032;-64
2023/09/26 03:55:26;;;;;;;4.38;1.40;;;;;;;;;;5078110;28;20258;-64
2023/09/26 03:57:53;;;;;;;4.23;1.30;;;;;;;;;;5062797;28;20027;-63
2023/09/26 04:00:25;;;;;;;5.28;1.60;;;;;;;;;;5054769;28;20255;-64
2023/09/26 04:02:50;;;;;;;4.18;1.30;;;;;;;;;;5070108;28;20035;-63
2023/09/26 04:05:16;;;;;;;6.50;1.38;;;;;;;;;;5068864;28;20020;-64
2023/09/26 04:07:41;;;;;;;3.90;1.23;;;;;;;;;;5048955;28;20690;-63
2023/09/26 04:10:06;;;;;;;5.32;1.80;;;;;;;;;;5057440;28;20017;-64
2023/09/26 04:12:32;;;;;;;5.97;1.65;;;;;;;;;;5051533;28;20200;-63
2023/09/26 04:14:58;;;;;;;5.68;1.80;;;;;;;;;;5055130;28;20025;-64
2023/09/26 04:17:23;;;;;;;4.65;1.50;;;;;;;;;;5054995;28;20108;-64
2023/09/26 04:19:49;;;;;;;4.10;1.40;;;;;;;;;;5069085;28;20441;-64
2023/09/26 04:22:14;;;;;;;4.40;1.50;;;;;;;;;;5065529;28;20258;-63
2023/09/26 04:24:39;;;;;;;3.67;1.33;;;;;;;;;;5072164;28;20039;-64
2023/09/26 04:27:04;;;;;;;4.60;1.43;;;;;;;;;;5061893;28;20314;-64
2023/09/26 04:29:30;;;;;;;4.17;1.50;;;;;;;;;;5043350;28;20273;-63
2023/09/26 04:31:57;;;;;;;5.33;1.60;;;;;;;;;;5060117;28;20312;-64
2023/09/26 04:34:26;;;;;;;4.88;1.50;;;;;;;;;;5057861;28;20277;-64
2023/09/26 04:36:51;;;;;;;4.57;1.65;;;;;;;;;;5056195;28;20016;-64
2023/09/26 04:39:18;;;;;;;4.20;1.40;;;;;;;;;;5044957;28;20117;-63
2023/09/26 04:41:45;;;;;;;3.88;1.42;;;;;;;;;;5062453;28;20344;-65
2023/09/26 04:44:11;;;;;;;5.82;1.55;;;;;;;;;;5048658;28;20100;-65
2023/09/26 04:46:36;;;;;;;4.90;1.45;;;;;;;;;;5046434;28;20020;-64
2023/09/26 04:49:01;;;;;;;5.70;1.60;;;;;;;;;;5062843;28;20533;-64
2023/09/26 04:51:26;;;;;;;5.13;1.67;;;;;;;;;;5041101;28;20482;-65
2023/09/26 04:53:56;;;;;;;4.83;1.70;;;;;;;;;;5063930;28;20048;-65
2023/09/26 04:56:21;;;;;;;6.15;1.77;;;;;;;;;;5061626;28;20258;-64
2023/09/26 04:58:47;;;;;;;5.40;1.55;;;;;;;;;;5067343;28;20417;-64
2023/09/26 05:01:15;;;;;;;4.17;1.43;;;;;;;;;;5065201;28;20594;-63
2023/09/26 05:03:41;;;;;;;5.05;1.70;;;;;;;;;;5053267;28;20285;-64
2023/09/26 05:06:07;;;;;;;4.45;1.45;;;;;;;;;;5051052;28;20031;-64
2023/09/26 05:08:32;;;;;;;4.75;1.60;;;;;;;;;;5070973;28;20127;-65
2023/09/26 05:11:00;;;;;;;4.60;1.63;;;;;;;;;;5060411;28;20031;-63
2023/09/26 05:13:25;;;;;;;4.60;1.52;;;;;;;;;;5072018;28;20099;-65
2023/09/26 05:15:51;;;;;;;7.93;2.58;;;;;;;;;;5070069;28;20021;-64
2023/09/26 05:18:16;;;;;;;5.22;1.50;;;;;;;;;;5057383;28;20032;-64
2023/09/26 05:20:41;;;;;;;4.78;1.60;;;;;;;;;;5070975;28;20026;-64
2023/09/26 05:23:07;;;;;;;5.07;1.60;;;;;;;;;;5053579;28;20470;-64
2023/09/26 05:25:35;;;;;;;4.43;1.43;;;;;;;;;;5071688;28;20257;-64
2023/09/26 05:28:00;;;;;;;5.13;1.60;;;;;;;;;;5064929;28;20819;-64
2023/09/26 05:30:26;;;;;;;4.90;1.60;;;;;;;;;;5070872;28;20108;-66
2023/09/26 05:32:51;;;;;;;5.13;1.40;;;;;;;;;;5074584;28;20122;-64
2023/09/26 05:35:16;;;;;;;3.80;1.40;;;;;;;;;;5069779;28;21677;-64
2023/09/26 05:37:41;;;;;;;4.75;1.40;;;;;;;;;;5071961;28;20267;-64
2023/09/26 05:40:07;;;;;;;5.32;1.65;;;;;;;;;;5049958;28;20039;-65
2023/09/26 05:42:33;;;;;;;5.45;1.60;;;;;;;;;;5072573;28;20023;-64
2023/09/26 05:44:58;;;;;;;4.30;1.42;;;;;;;;;;5059381;28;20016;-64
2023/09/26 05:47:23;;;;;;;5.37;1.60;;;;;;;;;;5086090;28;20127;-64
2023/09/26 05:49:50;;;;;;;4.17;1.47;;;;;;;;;;5072242;28;20084;-64
2023/09/26 05:52:15;;;;;;;5.50;1.80;;;;;;;;;;5095552;27;20254;-64
2023/09/26 05:54:40;;;;;;;6.07;1.50;;;;;;;;;;5093180;27;20175;-63
2023/09/26 05:57:06;;;;;;;6.13;1.70;;;;;;;;;;5090641;28;20293;-63
2023/09/26 05:59:33;;;;;;;4.43;1.60;;;;;;;;;;5081770;28;20289;-65
2023/09/26 06:01:58;;;;;;;4.55;1.60;;;;;;;;;;5103029;27;20261;-64
2023/09/26 06:04:29;;;;;;;4.70;1.50;;;;;;;;;;5098367;27;20015;-64
2023/09/26 06:06:54;;;;;;;4.28;1.42;;;;;;;;;;5079314;27;20266;-64
2023/09/26 06:09:19;;;;;;;4.43;1.50;;;;;;;;;;5090959;28;20034;-63
2023/09/26 06:11:44;;;;;;;7.00;1.77;;;;;;;;;;5096014;27;20834;-64
2023/09/26 06:14:12;;;;;;;6.30;1.90;;;;;;;;;;5071918;27;20281;-64
2023/09/26 06:16:37;;;;;;;4.13;1.48;;;;;;;;;;5074645;27;20273;-64
2023/09/26 06:19:05;;;;;;;5.27;1.60;;;;;;;;;;5095283;27;20027;-60
2023/09/26 06:21:35;;;;;;;5.15;1.88;;;;;;;;;;5068988;27;20250;-64
2023/09/26 06:24:00;;;;;;;4.40;1.50;;;;;;;;;;5089234;28;20134;-63
2023/09/26 06:26:26;;;;;;;4.60;1.40;;;;;;;;;;5086504;28;20574;-65
2023/09/26 06:28:51;;;;;;;4.70;1.67;;;;;;;;;;5093891;27;20254;-64
2023/09/26 06:31:18;;;;;;;4.15;1.50;;;;;;;;;;5098185;28;20054;-64
2023/09/26 06:33:44;;;;;;;4.85;1.60;;;;;;;;;;5087832;27;20020;-60
2023/09/26 06:36:13;;;;;;;4.30;1.50;;;;;;;;;;5095958;27;20020;-64
2023/09/26 06:38:38;;;;;;;5.53;1.80;;;;;;;;;;5095880;27;20356;-64
2023/09/26 06:41:06;;;;;;;4.70;1.40;;;;;;;;;;5089263;27;20019;-63
2023/09/26 06:43:32;;;;;;;5.15;1.63;;;;;;;;;;5096248;27;20030;-63
2023/09/26 06:46:02;;;;;;;4.82;1.67;;;;;;;;;;5093858;27;20016;-61
2023/09/26 06:48:27;;;;;;;3.72;1.42;;;;;;;;;;5074140;28;20805;-63
2023/09/26 06:50:54;;;;;;;5.90;1.80;;;;;;;;;;5054048;28;20020;-63
2023/09/26 06:53:21;;;;;;;4.60;1.65;;;;;;;;;;5078054;28;20343;-63
2023/09/26 06:55:46;;;;;;;5.43;1.75;;;;;;;;;;5059539;28;20539;-63
2023/09/26 06:58:11;;;;;;;4.23;1.53;;;;;;;;;;5069036;28;20527;-63
2023/09/26 07:00:40;;;;;;;4.72;1.73;;;;;;;;;;5047962;28;20514;-63
2023/09/26 07:03:05;;;;;;;7.32;2.00;;;;;;;;;;5051083;28;20092;-63
2023/09/26 07:05:31;;;;;;;4.15;1.45;;;;;;;;;;5061309;28;20385;-64
2023/09/26 07:07:56;;;;;;;4.72;1.75;;;;;;;;;;5056869;28;20028;-64
2023/09/26 07:10:24;;;;;;;4.60;1.80;;;;;;;;;;5058024;28;20431;-64
2023/09/26 07:12:50;;;;;;;4.82;1.63;;;;;;;;;;5073915;28;20097;-63
2023/09/26 07:15:15;;;;;;;5.40;1.80;;;;;;;;;;5048838;28;20950;-63
2023/09/26 07:17:41;;;;;;;5.00;1.73;;;;;;;;;;5069967;28;21390;-63
2023/09/26 07:20:19;;;;;;;5.47;1.70;;;;;;;;;;5052202;28;20533;-62
2023/09/26 07:22:46;;;;;;;6.75;1.65;;;;;;;;;;5076182;27;20051;-64
2023/09/26 07:25:12;;;;;;;5.90;1.67;;;;;;;;;;5060026;28;20024;-63
2023/09/26 07:27:37;;;;;;;4.65;1.52;;;;;;;;;;5060562;28;20476;-63
2023/09/26 07:30:03;;;;;;;4.37;1.57;;;;;;;;;;5055742;28;20412;-63
2023/09/26 07:32:29;;;;;;;5.88;1.80;;;;;;;;;;5066445;28;20389;-64
2023/09/26 07:34:55;;;;;;;5.88;1.60;;;;;;;;;;5065743;28;20081;-62
2023/09/26 07:37:21;;;;;;;4.50;1.80;;;;;;;;;;5069440;28;20032;-63
2023/09/26 07:39:51;;;;;;;6.43;1.90;;;;;;;;;;5064560;28;20025;-64
2023/09/26 07:42:17;;;;;;;4.85;1.75;;;;;;;;;;5070925;28;20020;-63
2023/09/26 07:44:42;;;;;;;4.97;1.73;;;;;;;;;;5065498;28;20077;-63
2023/09/26 07:47:08;;;;;;;4.77;1.80;;;;;;;;;;5074662;28;20043;-63
2023/09/26 07:49:35;;;;;;;6.25;1.80;;;;;;;;;;5068553;28;20253;-63
2023/09/26 07:52:03;;;;;;;6.10;1.70;;;;;;;;;;5072172;28;20008;-64
2023/09/26 07:54:28;;;;;;;6.72;2.00;;;;;;;;;;5056548;28;20023;-64
2023/09/26 07:56:55;;;;;;;5.13;1.80;;;;;;;;;;5076960;28;20016;-63
2023/09/26 07:59:24;;;;;;;5.47;1.70;;;;;;;;;;5058368;28;20788;-63
2023/09/26 08:01:59;;;;;;;5.38;1.70;;;;;;;;;;5077029;28;20111;-63
2023/09/26 08:04:26;;;;;;;5.57;1.73;;;;;;;;;;5065011;28;20027;-65
2023/09/26 08:06:51;;;;;;;3.90;1.60;;;;;;;;;;5077823;28;20074;-63
2023/09/26 08:09:19;;;;;;;5.37;1.80;;;;;;;;;;5079784;28;20811;-62
2023/09/26 08:11:44;;;;;;;7.75;2.05;;;;;;;;;;5053999;28;20312;-63
2023/09/26 08:14:09;;;;;;;5.38;1.75;;;;;;;;;;5073095;28;20028;-63
2023/09/26 08:16:37;;;;;;;5.00;1.70;;;;;;;;;;5064219;28;20024;-64
2023/09/26 08:19:05;;;;;;;6.90;1.70;;;;;;;;;;5061972;28;20796;-64
2023/09/26 08:21:32;;;;;;;5.47;1.65;;;;;;;;;;5071253;28;20019;-62
2023/09/26 08:23:58;;;;;;;5.07;1.80;;;;;;;;;;5055715;28;20027;-61
2023/09/26 08:26:23;;;;;;;4.40;1.63;;;;;;;;;;5056622;28;20024;-64
2023/09/26 08:28:48;;;;;;;6.37;1.60;;;;;;;;;;5073503;28;20020;-64
2023/09/26 08:31:17;;;;;;;6.00;2.10;;;;;;;;;;5055570;28;20254;-63
2023/09/26 08:33:43;;;;;;;5.30;1.67;;;;;;;;;;5053621;28;20632;-63
2023/09/26 08:36:19;;;;;;;5.03;1.77;;;;;;;;;;5059150;28;20051;-63
2023/09/26 08:38:44;;;;;;;7.20;2.22;;;;;;;;;;5077706;28;20032;-63
2023/09/26 08:41:10;;;;;;;5.40;1.70;;;;;;;;;;5075670;28;20012;-64
2023/09/26 08:43:38;;;;;;;4.90;1.55;;;;;;;;;;5075758;28;20107;-63
2023/09/26 08:46:05;;;;;;;4.40;1.35;;;;;;;;;;5065941;28;20411;-63
2023/09/26 08:48:31;;;;;;;5.18;1.70;;;;;;;;;;5078098;28;20050;-64
2023/09/26 08:50:56;;;;;;;4.47;1.75;;;;;;;;;;5066530;28;20020;-64
2023/09/26 08:53:21;;;;;;;5.80;2.00;;;;;;;;;;5059955;28;20024;-64
2023/09/26 08:55:49;;;;;;;4.53;1.60;;;;;;;;;;5062714;28;20035;-64
2023/09/26 08:58:14;;;;;;;4.60;1.65;;;;;;;;;;5074877;28;20024;-64
2023/09/26 09:00:44;;;;;;;3.88;1.63;;;;;;;;;;5061312;28;20755;-64
2023/09/26 09:03:09;;;;;;;4.25;1.70;;;;;;;;;;5078167;28;20028;-64
2023/09/26 09:05:34;;;;;;;5.27;1.70;;;;;;;;;;5054657;28;20024;-65
2023/09/26 09:08:02;;;;;;;5.05;2.00;;;;;;;;;;5080191;28;20104;-64
2023/09/26 09:10:27;;;;;;;4.57;1.60;;;;;;;;;;5071578;28;20016;-65
2023/09/26 09:13:11;;;;;;;5.20;1.95;;;;;;;;;;5052698;28;20035;-64
2023/09/26 09:15:36;;;;;;;5.20;1.80;;;;;;;;;;5070134;28;20087;-64
2023/09/26 09:18:01;;;;;;;4.17;1.77;;;;;;;;;;5057836;28;20032;-64
2023/09/26 09:20:35;;;;;;;5.37;1.70;;;;;;;;;;5067938;28;20250;-64
2023/09/26 09:23:06;;;;;;;5.32;1.60;;;;;;;;;;5074411;28;20258;-64
2023/09/26 09:25:41;;;;;;;4.65;1.63;;;;;;;;;;5081401;28;20016;-64
2023/09/26 09:28:09;;;;;;;4.95;1.52;;;;;;;;;;5058970;28;20012;-64
2023/09/26 09:30:45;;;;;;;4.72;1.60;;;;;;;;;;5076984;28;20008;-64
2023/09/26 09:33:12;;;;;;;6.13;1.48;;;;;;;;;;5068155;28;20067;-64
2023/09/26 09:35:38;;;;;;;5.40;1.90;;;;;;;;;;5073573;28;20020;-63
2023/09/26 09:38:04;;;;;;;4.23;1.57;;;;;;;;;;5075101;28;20012;-64
2023/09/26 09:40:38;;;;;;;5.80;1.90;;;;;;;;;;5059925;28;20765;-63
2023/09/26 09:43:03;;;;;;;5.45;1.70;;;;;;;;;;5056594;28;20038;-66
2023/09/26 09:45:31;;;;;;;7.35;1.60;;;;;;;;;;5066462;28;20104;-65
2023/09/26 09:48:00;;;;;;;4.20;1.60;;;;;;;;;;5073604;28;20059;-63
2023/09/26 09:50:25;;;;;;;5.78;1.80;;;;;;;;;;5070462;28;20107;-64
2023/09/26 09:52:51;;;;;;;4.57;1.53;;;;;;;;;;5057842;28;20016;-65
2023/09/26 09:55:20;;;;;;;5.47;1.55;;;;;;;;;;5049505;28;20273;-64
2023/09/26 09:57:47;;;;;;;5.50;1.70;;;;;;;;;;5069320;28;20050;-64
2023/09/26 10:00:14;;;;;;;5.47;1.83;;;;;;;;;;5075931;28;20044;-65
2023/09/26 10:02:39;;;;;;;5.28;1.75;;;;;;;;;;5075020;28;20023;-65
2023/09/26 10:05:12;;;;;;;4.72;1.80;;;;;;;;;;5058627;28;20053;-64
2023/09/26 10:07:38;;;;;;;4.75;1.60;;;;;;;;;;5053802;28;20028;-64
2023/09/26 10:10:09;;;;;;;6.70;1.80;;;;;;;;;;5062130;28;20026;-65
2023/09/26 10:12:36;;;;;;;4.65;1.50;;;;;;;;;;5078773;28;20712;-65
2023/09/26 10:15:03;;;;;;;4.80;1.65;;;;;;;;;;5054499;28;20040;-65
2023/09/26 10:17:28;;;;;;;4.53;1.50;;;;;;;;;;5052514;28;20111;-65
2023/09/26 10:19:54;;;;;;;4.60;1.43;;;;;;;;;;5067111;28;20080;-67
2023/09/26 10:22:22;;;;;;;4.97;1.70;;;;;;;;;;5058549;28;20044;-65
2023/09/26 10:24:48;;;;;;;5.55;1.77;;;;;;;;;;5075566;28;20024;-65
2023/09/26 10:27:21;;;;;;;5.43;1.70;;;;;;;;;;5065217;28;20030;-65
2023/09/26 10:29:46;;;;;;;4.30;1.40;;;;;;;;;;5074426;28;20024;-62
2023/09/26 10:32:21;;;;;;;4.77;1.50;;;;;;;;;;5085795;27;20109;-65
2023/09/26 10:34:48;;;;;;;4.30;1.77;;;;;;;;;;5048429;28;20016;-62
2023/09/26 10:37:20;;;;;;;5.72;1.70;;;;;;;;;;5065827;28;20028;-65
2023/09/26 10:39:45;;;;;;;5.50;2.10;;;;;;;;;;5053697;28;20020;-65
2023/09/26 10:42:11;;;;;;;4.00;1.52;;;;;;;;;;5060805;28;20973;-65
2023/09/26 10:44:37;;;;;;;4.78;1.70;;;;;;;;;;5049955;28;20111;-63
2023/09/26 10:47:05;;;;;;;5.00;1.90;;;;;;;;;;5054153;28;20051;-64
2023/09/26 10:49:31;;;;;;;5.47;1.42;;;;;;;;;;5069129;28;20368;-64
2023/09/26 10:51:56;;;;;;;5.40;1.58;;;;;;;;;;5084596;28;20515;-64
2023/09/26 10:54:22;;;;;;;4.50;1.70;;;;;;;;;;5086218;28;20104;-63
2023/09/26 10:56:52;;;;;;;5.47;1.63;;;;;;;;;;5087055;27;20258;-64
2023/09/26 10:59:18;;;;;;;4.97;1.67;;;;;;;;;;5086880;28;20398;-63
2023/09/26 11:01:46;;;;;;;4.90;1.50;;;;;;;;;;5077465;27;20107;-65
2023/09/26 11:04:11;;;;;;;4.72;1.80;;;;;;;;;;5076967;28;20047;-64
2023/09/26 11:06:42;;;;;;;3.80;1.40;;;;;;;;;;5063674;28;20448;-65
2023/09/26 11:09:07;;;;;;;5.60;1.70;;;;;;;;;;5060796;28;20031;-65
2023/09/26 11:11:37;;;;;;;6.40;1.65;;;;;;;;;;5059929;28;20098;-64
2023/09/26 11:14:04;;;;;;;6.00;1.88;;;;;;;;;;5064879;28;20027;-65
2023/09/26 11:16:30;;;;;;;6.18;1.85;;;;;;;;;;5077548;28;20027;-64
2023/09/26 11:18:55;;;;;;;4.90;1.87;;;;;;;;;;5079503;28;20020;-63
2023/09/26 11:21:25;;;;;;;5.22;1.90;;;;;;;;;;5075289;27;21009;-64
2023/09/26 11:23:51;;;;;;;5.03;1.70;;;;;;;;;;5076958;28;20054;-63
2023/09/26 11:26:16;;;;;;;6.70;1.63;;;;;;;;;;5076198;28;20108;-64
2023/09/26 11:28:41;;;;;;;5.75;1.98;;;;;;;;;;5077639;27;20285;-61
2023/09/26 11:31:07;;;;;;;4.93;1.67;;;;;;;;;;5077878;28;20103;-65
2023/09/26 11:33:32;;;;;;;5.30;1.73;;;;;;;;;;5076979;28;20023;-61
2023/09/26 11:35:58;;;;;;;6.22;1.75;;;;;;;;;;5077836;28;20618;-64
2023/09/26 11:38:24;;;;;;;5.55;1.90;;;;;;;;;;5057161;28;20023;-62
2023/09/26 11:40:49;;;;;;;7.03;1.90;;;;;;;;;;5064500;28;20020;-63
2023/09/26 11:43:14;;;;;;;5.22;1.70;;;;;;;;;;5076465;28;20933;-63
2023/09/26 11:45:40;;;;;;;4.93;1.80;;;;;;;;;;5060709;28;20023;-63
2023/09/26 11:48:05;;;;;;;6.78;1.95;;;;;;;;;;5056184;28;21593;-63
2023/09/26 11:50:31;;;;;;;4.93;1.67;;;;;;;;;;5077019;28;20542;-62
2023/09/26 11:53:00;;;;;;;5.55;2.00;;;;;;;;;;5055663;28;20027;-62
2023/09/26 11:55:25;;;;;;;;;;;;;;;;;;5077766;28;20116;-62
2023/09/26 11:57:53;;;;;;;7.82;1.52;;;;;;;;;;5077014;28;19915;-65
2023/09/26 12:00:20;;;;;;;4.32;1.65;;;;;;;;;;5075380;28;20816;-63
2023/09/26 12:02:46;;;;;;;6.07;1.92;;;;;;;;;;5059579;28;20599;-63
2023/09/26 12:05:12;;;;;;;5.20;1.50;;;;;;;;;;5074686;28;20027;-64
2023/09/26 12:07:41;;;;;;;5.53;1.88;;;;;;;;;;5077978;28;20028;-64
2023/09/26 12:10:06;;;;;;;5.65;1.75;;;;;;;;;;5064073;28;20023;-63
2023/09/26 12:12:32;;;;;;;5.95;1.80;;;;;;;;;;5077310;28;20020;-62
2023/09/26 12:15:16;;;;;;;4.97;1.80;;;;;;;;;;5065742;28;20648;-63
2023/09/26 12:17:42;;;;;;;5.45;1.75;;;;;;;;;;5063640;28;20123;-63
2023/09/26 12:20:08;;;;;;;6.37;2.00;;;;;;;;;;5058857;28;20027;-63
2023/09/26 12:22:34;;;;;;;5.38;1.67;;;;;;;;;;5073621;28;20289;-65
2023/09/26 12:24:59;;;;;;;5.75;1.83;;;;;;;;;;5073876;28;20024;-63
2023/09/26 12:27:24;;;;;;;5.50;2.00;;;;;;;;;;5056825;28;20016;-63
2023/09/26 12:29:52;;;;;;;5.97;2.00;;;;;;;;;;5062291;28;20023;-63
2023/09/26 12:32:17;;;;;;;5.65;1.60;;;;;;;;;;5065424;28;20024;-63
2023/09/26 12:34:43;;;;;;;6.22;1.90;;;;;;;;;;5072862;28;20032;-63
2023/09/26 12:37:08;;;;;;;6.47;1.88;;;;;;;;;;5078106;28;20086;-63
2023/09/26 12:39:33;;;;;;;5.93;2.10;;;;;;;;;;5062435;28;20020;-63
2023/09/26 12:41:59;;;;;;;6.97;2.23;;;;;;;;;;5077356;28;20019;-63
2023/09/26 12:44:28;;;;;;;5.07;1.90;;;;;;;;;;5058159;28;20715;-63
2023/09/26 12:46:53;;;;;;;4.85;1.88;;;;;;;;;;5070965;28;20289;-63
2023/09/26 12:49:21;;;;;;;5.87;2.10;;;;;;;;;;5044073;28;20020;-63
2023/09/26 12:51:46;;;;;;;7.38;2.28;;;;;;;;;;5055986;28;20259;-63
2023/09/26 12:54:12;;;;;;;6.38;2.10;;;;;;;;;;5056575;28;20028;-63
2023/09/26 12:56:37;;;;;;;6.27;2.10;;;;;;;;;;5055776;28;20021;-64
2023/09/26 12:59:02;;;;;;;5.77;2.77;;;;;;;;;;5038086;28;20077;-63
2023/09/26 13:01:28;;;;;;;8.70;2.20;;;;;;;;;;5041256;28;20016;-63
2023/09/26 13:03:56;;;;;;;6.30;2.10;;;;;;;;;;5038687;28;21121;-63
2023/09/26 13:06:22;;;;;;;6.72;2.15;;;;;;;;;;5056748;28;20046;-61
2023/09/26 13:08:47;;;;;;;5.70;1.92;;;;;;;;;;5052844;28;20515;-63
2023/09/26 13:11:12;;;;;;;6.25;2.30;;;;;;;;;;5057217;28;20696;-64
2023/09/26 13:13:37;;;;;;;5.40;2.20;;;;;;;;;;5053348;28;20020;-64
2023/09/26 13:16:04;;;;;;;8.73;2.03;;;;;;;;;;5057942;28;20270;-63
2023/09/26 13:18:30;;;;;;;5.13;2.08;;;;;;;;;;5045061;28;20255;-64
2023/09/26 13:20:55;;;;;;;6.43;1.95;;;;;;;;;;5059846;28;20029;-63
2023/09/26 13:23:21;;;;;;;7.00;2.00;;;;;;;;;;5059820;28;20066;-62
2023/09/26 13:25:46;;;;;;;6.72;1.88;;;;;;;;;;5040011;28;20278;-63
2023/09/26 13:28:11;;;;;;;6.30;2.10;;;;;;;;;;5045069;28;20486;-63
2023/09/26 13:30:36;;;;;;;5.03;2.03;;;;;;;;;;5057108;28;20270;-63
2023/09/26 13:33:02;;;;;;;5.57;2.05;;;;;;;;;;5049103;28;20990;-63
2023/09/26 13:35:30;;;;;;;5.72;2.00;;;;;;;;;;5046430;28;20698;-63
2023/09/26 13:37:56;;;;;;;5.97;1.97;;;;;;;;;;5062260;28;20474;-63
2023/09/26 13:40:21;;;;;;;5.55;2.58;;;;;;;;;;5059657;28;20278;-63
2023/09/26 13:42:46;;;;;;;5.50;1.90;;;;;;;;;;5061875;28;20024;-64
2023/09/26 13:45:12;;;;;;;5.47;2.07;;;;;;;;;;5057756;28;20728;-63
2023/09/26 13:47:38;;;;;;;7.18;2.22;;;;;;;;;;5076029;27;20055;-63
2023/09/26 13:50:05;;;;;;;6.18;2.20;;;;;;;;;;5060122;28;20022;-63
2023/09/26 13:52:31;;;;;;;6.60;2.20;;;;;;;;;;5058386;28;20016;-63
2023/09/26 13:54:59;;;;;;;4.82;1.98;;;;;;;;;;5059733;28;20640;-63
2023/09/26 13:57:25;;;;;;;4.88;1.80;;;;;;;;;;5057407;28;20069;-63
2023/09/26 13:59:51;;;;;;;5.13;2.03;;;;;;;;;;5061369;28;20012;-63
2023/09/26 14:02:19;;;;;;;6.40;2.00;;;;;;;;;;5071345;27;20139;-63
2023/09/26 14:04:47;;;;;;;7.25;2.45;;;;;;;;;;5044214;28;20686;-63
2023/09/26 14:07:12;;;;;;;5.22;2.20;;;;;;;;;;5042067;28;20023;-62
2023/09/26 14:09:37;;;;;;;5.93;1.90;;;;;;;;;;5046728;28;20345;-62
2023/09/26 14:12:06;;;;;;;6.47;2.10;;;;;;;;;;5056339;28;20428;-62
2023/09/26 14:14:35;;;;;;;5.10;2.15;;;;;;;;;;5059234;28;20834;-63
2023/09/26 14:17:01;;;;;;;7.50;2.63;;;;;;;;;;5042494;28;20034;-65
2023/09/26 14:19:26;;;;;;;6.40;2.28;;;;;;;;;;5056223;28;20028;-65
2023/09/26 14:21:54;;;;;;;5.50;2.07;;;;;;;;;;5061438;28;20491;-62
2023/09/26 14:24:19;;;;;;;7.97;2.30;;;;;;;;;;5040348;28;20773;-62
2023/09/26 14:26:44;;;;;;;6.45;2.20;;;;;;;;;;5060222;28;20032;-63
2023/09/26 14:29:09;;;;;;;5.53;2.17;;;;;;;;;;5040383;28;20129;-63
2023/09/26 14:31:35;;;;;;;5.97;2.08;;;;;;;;;;5039353;28;20185;-65
2023/09/26 14:34:02;;;;;;;5.70;2.20;;;;;;;;;;5057989;28;20034;-62
2023/09/26 14:36:30;;;;;;;5.97;2.22;;;;;;;;;;5057184;28;20032;-62
2023/09/26 14:38:55;;;;;;;6.35;2.13;;;;;;;;;;5060442;28;20028;-63